Time;durP1;ratioP1;P1;durP2;ratioP2;P2;SDS_P1;SDS_P2;PMS_P1;PMS_P2;Temp;Humidity;BMP_temperature;BMP_pressure;BME280_temperature;BME280_humidity;BME280_pressure;Samples;Min_cycle;Max_cycle;Signal;HPM_P1;HPM_P2
2021/12/10 17:51:28;;;;;;;;;;;;;;;2.97;100.00;89808.59;5070220;28;20325;-67
2021/12/10 17:53:55;;;;;;;;;;;;;;;2.92;100.00;89808.69;5071326;28;19931;-66
2021/12/10 17:56:22;;;;;;;;;;;;;;;2.77;100.00;89803.69;5070395;28;19920;-66
2021/12/10 17:58:49;;;;;;;;;;;;;;;2.65;100.00;89806.78;5070688;28;19916;-67
2021/12/10 18:01:21;;;;;;;;;;;;;;;2.58;100.00;89806.38;5071773;28;19978;-67
2021/12/10 18:03:50;;;;;;;;;;;;;;;2.59;100.00;89802.69;5074263;28;19921;-68
2021/12/10 18:06:17;;;;;;;;;;;;;;;2.62;100.00;89808.13;5074199;28;19990;-66
2021/12/10 18:08:42;;;;;;;;;;;;;;;2.62;100.00;89816.00;5086206;28;19955;-67
2021/12/10 18:11:09;;;;;;;;;;;;;;;2.56;100.00;89817.19;5093888;28;20345;-67
2021/12/10 18:13:35;;;;;;;;;;;;;;;2.51;100.00;89827.75;5093796;28;20321;-67
2021/12/10 18:16:03;;;;;;;;;;;;;;;2.52;100.00;89834.53;5093570;28;19916;-69
2021/12/10 18:18:34;;;;;;;;;;;;;;;2.63;100.00;89837.78;5094320;28;19920;-68
2021/12/10 18:21:08;;;;;;;;;;;;;;;2.57;100.00;89837.09;5093405;28;20366;-67
2021/12/10 18:23:36;;;;;;;;;;;;;;;2.64;100.00;89853.25;5093726;28;20057;-67
2021/12/10 18:26:06;;;;;;;;;;;;;;;2.57;100.00;89847.59;5093571;28;19916;-66
2021/12/10 18:28:34;;;;;;;;;;;;;;;2.62;100.00;89849.38;5093767;28;19918;-67
2021/12/10 18:31:02;;;;;;;;;;;;;;;2.76;100.00;89844.94;5074998;28;20312;-67
2021/12/10 18:33:28;;;;;;;;;;;;;;;2.81;100.00;89849.31;5093985;28;19972;-67
2021/12/10 18:35:55;;;;;;;;;;;;;;;2.82;100.00;89843.78;5093850;28;20003;-67
2021/12/10 18:38:23;;;;;;;;;;;;;;;2.77;100.00;89856.22;5093376;28;19916;-67
2021/12/10 18:41:02;;;;;;;;;;;;;;;2.77;100.00;89859.63;5092945;28;19965;-67
2021/12/10 18:43:29;;;;;;;;;;;;;;;2.72;100.00;89866.81;5093609;28;19920;-66
2021/12/10 18:45:57;;;;;;;;;;;;;;;2.73;100.00;89871.78;5093069;28;20400;-67
2021/12/10 18:48:25;;;;;;;;;;;;;;;2.71;100.00;89868.66;5093645;28;20745;-66
2021/12/10 18:50:58;;;;;;;;;;;;;;;2.66;100.00;89874.75;5093215;28;19927;-67
2021/12/10 18:53:34;;;;;;;;;;;;;;;2.64;100.00;89873.47;5074713;28;20008;-67
2021/12/10 18:56:03;;;;;;;;;;;;;;;2.57;100.00;89871.22;5093173;28;20458;-67
2021/12/10 18:58:30;;;;;;;;;;;;;;;2.55;100.00;89870.75;5093405;28;19920;-67
2021/12/10 19:00:58;;;;;;;;;;;;;;;2.51;100.00;89869.72;5092730;28;19920;-67
2021/12/10 19:03:27;;;;;;;;;;;;;;;2.61;100.00;89874.84;5093128;28;19956;-67
2021/12/10 19:05:55;;;;;;;;;;;;;;;2.58;100.00;89869.38;5093007;28;20452;-67
2021/12/10 19:08:27;;;;;;;;;;;;;;;2.60;100.00;89878.53;5092604;28;19916;-67
2021/12/10 19:10:54;;;;;;;;;;;;;;;2.55;100.00;89865.50;5072907;28;20479;-68
2021/12/10 19:13:22;;;;;;;;;;;;;;;2.60;100.00;89868.03;5083851;28;19923;-67
2021/12/10 19:15:50;;;;;;;;;;;;;;;2.55;100.00;89881.25;5093095;28;20396;-67
2021/12/10 19:18:23;;;;;;;;;;;;;;;2.47;100.00;89879.25;5092723;28;19974;-67
2021/12/10 19:20:52;;;;;;;;;;;;;;;2.40;100.00;89874.38;5077062;28;19938;-67
2021/12/10 19:23:21;;;;;;;;;;;;;;;2.25;100.00;89876.44;5072568;28;19917;-67
2021/12/10 19:25:52;;;;;;;;;;;;;;;2.07;100.00;89878.78;5082525;28;19916;-67
2021/12/10 19:28:20;;;;;;;;;;;;;;;1.92;100.00;89883.44;5092495;28;19916;-67
2021/12/10 19:30:53;;;;;;;;;;;;;;;1.77;100.00;89881.78;5092627;28;19957;-68
2021/12/10 19:33:21;;;;;;;;;;;;;;;1.69;100.00;89893.66;5092761;28;20404;-68
2021/12/10 19:35:52;;;;;;;;;;;;;;;1.55;100.00;89892.00;5092401;28;19916;-67
2021/12/10 19:38:23;;;;;;;;;;;;;;;1.47;100.00;89899.44;5092335;28;19927;-68
2021/12/10 19:40:59;;;;;;;;;;;;;;;1.43;100.00;89901.06;5090837;28;20022;-67
2021/12/10 19:43:29;;;;;;;;;;;;;;;1.47;100.00;89909.13;5081732;28;20312;-67
2021/12/10 19:46:02;;;;;;;;;;;;;;;1.52;100.00;89906.44;5072313;28;19916;-67
2021/12/10 19:48:29;;;;;;;;;;;;;;;1.53;100.00;89904.59;5072184;28;19923;-66
2021/12/10 19:51:00;;;;;;;;;;;;;;;1.47;100.00;89909.13;5071352;28;20448;-67
2021/12/10 19:53:49;;;;;;;;;;;;;;;1.42;100.00;89917.03;5072451;28;19917;-66
2021/12/10 19:56:18;;;;;;;;;;;;;;;1.45;100.00;89914.66;5033878;28;19923;-67
2021/12/10 19:59:02;;;;;;;;;;;;;;;1.46;100.00;89921.44;5071614;28;20011;-66
2021/12/10 20:01:33;;;;;;;;;;;;;;;1.50;100.00;89914.59;5072053;28;19916;-68
2021/12/10 20:03:59;;;;;;;;;;;;;;;1.46;100.00;89910.97;5071819;28;19922;-66
2021/12/10 20:06:24;;;;;;;;;;;;;;;1.40;100.00;89914.69;5071582;28;19925;-66
2021/12/10 20:08:56;;;;;;;;;;;;;;;1.34;100.00;89910.56;5071904;28;19920;-67
2021/12/10 20:11:28;;;;;;;;;;;;;;;1.24;100.00;89915.91;5071520;28;19971;-66
2021/12/10 20:13:56;;;;;;;;;;;;;;;1.14;100.00;89923.88;5053736;28;19924;-66
2021/12/10 20:16:24;;;;;;;;;;;;;;;1.17;100.00;89925.94;5071496;28;19923;-67
2021/12/10 20:18:58;;;;;;;;;;;;;;;1.14;100.00;89922.03;5053609;28;19975;-68
2021/12/10 20:21:36;;;;;;;;;;;;;;;1.09;100.00;89939.63;5071124;28;19974;-67
2021/12/10 20:24:16;;;;;;;;;;;;;;;0.99;100.00;89934.47;5091015;28;19922;-66
2021/12/10 20:26:43;;;;;;;;;;;;;;;1.00;100.00;89938.66;5091166;28;19916;-66
2021/12/10 20:29:11;;;;;;;;;;;;;;;0.95;100.00;89938.69;5091955;28;19916;-66
2021/12/10 20:31:44;;;;;;;;;;;;;;;0.79;100.00;89941.47;5091786;28;20010;-66
2021/12/10 20:34:16;;;;;;;;;;;;;;;0.89;100.00;89945.81;5091323;28;19956;-67
2021/12/10 20:36:48;;;;;;;;;;;;;;;0.83;100.00;89950.31;5091779;28;20048;-66
2021/12/10 20:39:18;;;;;;;;;;;;;;;0.74;100.00;89962.41;5090786;28;19920;-66
2021/12/10 20:41:49;;;;;;;;;;;;;;;0.54;100.00;89952.88;5091330;28;19929;-65
2021/12/10 20:44:17;;;;;;;;;;;;;;;0.52;100.00;89955.00;5091566;28;19917;-65
2021/12/10 20:46:49;;;;;;;;;;;;;;;0.53;100.00;89961.00;5091356;28;19928;-65
2021/12/10 20:49:20;;;;;;;;;;;;;;;0.47;100.00;89959.44;5073016;28;19920;-66
2021/12/10 20:51:48;;;;;;;;;;;;;;;0.51;100.00;89950.03;5090968;28;20340;-65
2021/12/10 20:54:18;;;;;;;;;;;;;;;0.49;100.00;89968.63;5090737;28;19920;-65
2021/12/10 20:56:55;;;;;;;;;;;;;;;0.41;100.00;89971.78;5091673;28;19920;-67
2021/12/10 20:59:24;;;;;;;;;;;;;;;0.34;100.00;89983.63;5091692;28;19916;-66
2021/12/10 21:01:52;;;;;;;;;;;;;;;0.35;100.00;89987.81;5091786;28;19916;-67
2021/12/10 21:04:20;;;;;;;;;;;;;;;0.36;100.00;89990.16;5091562;28;19920;-67
2021/12/10 21:06:53;;;;;;;;;;;;;;;0.29;100.00;89987.03;5090182;28;20018;-69
2021/12/10 21:09:21;;;;;;;;;;;;;;;0.21;100.00;89995.47;5072891;28;20390;-68
2021/12/10 21:11:52;;;;;;;;;;;;;;;0.15;100.00;89994.69;5073169;28;19922;-66
2021/12/10 21:14:23;;;;;;;;;;;;;;;0.09;100.00;89992.38;5091447;28;20010;-68
2021/12/10 21:16:55;;;;;;;;;;;;;;;0.05;100.00;89992.13;5091534;28;19920;-68
2021/12/10 21:19:23;;;;;;;;;;;;;;;0.07;100.00;89992.63;5091392;28;19965;-68
2021/12/10 21:21:48;;;;;;;;;;;;;;;0.11;100.00;89992.88;5091521;28;19927;-68
2021/12/10 21:24:35;;;;;;;;;;;;;;;0.15;100.00;90007.75;5091611;28;19916;-70
2021/12/10 21:27:04;;;;;;;;;;;;;;;0.18;100.00;90020.31;5091292;28;19916;-71
2021/12/10 21:29:33;;;;;;;;;;;;;;;0.20;100.00;90023.44;5089749;28;19920;-68
2021/12/10 21:32:12;;;;;;;;;;;;;;;0.25;100.00;90039.09;5091193;28;19920;-68
2021/12/10 21:34:47;;;;;;;;;;;;;;;0.24;100.00;90039.38;5091516;28;20313;-70
2021/12/10 21:39:53;;;;;;;;;;;;;;;0.18;100.00;90049.09;5095470;28;19919;-68
2021/12/10 21:42:24;;;;;;;;;;;;;;;0.22;100.00;90044.88;5095185;28;19919;-71
2021/12/10 21:44:54;;;;;;;;;;;;;;;0.13;100.00;90050.91;5094368;28;20282;-68
2021/12/10 21:47:22;;;;;;;;;;;;;;;0.15;100.00;90059.28;5095188;28;20374;-68
2021/12/10 21:49:48;;;;;;;;;;;;;;;0.09;100.00;90068.97;5095059;28;19922;-68
2021/12/10 21:52:16;;;;;;;;;;;;;;;0.12;100.00;90072.88;5094938;28;19953;-68
2021/12/10 21:54:47;;;;;;;;;;;;;;;0.21;100.00;90072.06;5094427;28;19924;-70
2021/12/10 21:57:15;;;;;;;;;;;;;;;0.25;100.00;90060.03;5094780;28;19916;-70
2021/12/10 21:59:42;;;;;;;;;;;;;;;0.32;100.00;90074.63;5094769;28;20053;-70
2021/12/10 22:02:07;;;;;;;;;;;;;;;0.20;100.00;90090.66;5095015;28;19920;-68
2021/12/10 22:04:38;;;;;;;;;;;;;;;0.17;100.00;90089.34;5076649;28;19920;-70
2021/12/10 22:07:05;;;;;;;;;;;;;;;0.33;100.00;90089.31;5094849;28;20009;-69
2021/12/10 22:09:33;;;;;;;;;;;;;;;0.26;100.00;90108.66;5094733;28;19916;-69
2021/12/10 22:12:08;;;;;;;;;;;;;;;0.15;100.00;90104.50;5094822;28;19967;-69
2021/12/10 22:14:40;;;;;;;;;;;;;;;0.25;100.00;90088.00;5094804;28;19966;-70
2021/12/10 22:17:09;;;;;;;;;;;;;;;0.32;100.00;90092.94;5094709;28;20313;-70
2021/12/10 22:19:36;;;;;;;;;;;;;;;0.17;100.00;90091.97;5094658;28;20396;-69
2021/12/10 22:22:07;;;;;;;;;;;;;;;0.22;100.00;90101.63;5094453;28;19960;-70
2021/12/10 22:24:38;;;;;;;;;;;;;;;0.15;100.00;90099.28;5094418;28;19924;-70
2021/12/10 22:27:08;;;;;;;;;;;;;;;0.13;100.00;90104.00;5093750;28;19924;-70
2021/12/10 22:29:35;;;;;;;;;;;;;;;0.18;100.00;90090.13;5094631;28;20290;-70
2021/12/10 22:32:03;;;;;;;;;;;;;;;0.31;100.00;90094.78;5094304;28;20359;-70
2021/12/10 22:34:30;;;;;;;;;;;;;;;0.34;100.00;90098.72;5094350;28;20010;-70
2021/12/10 22:37:05;;;;;;;;;;;;;;;0.31;100.00;90071.25;5094328;28;19982;-69
2021/12/10 22:39:39;;;;;;;;;;;;;;;0.37;100.00;90074.63;5094264;28;19916;-70
2021/12/10 22:42:04;;;;;;;;;;;;;;;0.30;100.00;90075.69;5094486;28;19966;-70
2021/12/10 22:44:33;;;;;;;;;;;;;;;0.16;100.00;90081.75;5094255;28;19955;-70
2021/12/10 22:47:00;;;;;;;;;;;;;;;0.07;100.00;90073.69;5093602;28;19957;-70
2021/12/10 22:49:27;;;;;;;;;;;;;;;0.09;100.00;90058.50;5093714;28;19916;-70
2021/12/10 22:52:00;;;;;;;;;;;;;;;0.13;100.00;90049.09;5093759;28;20320;-70
2021/12/10 22:54:27;;;;;;;;;;;;;;;0.15;100.00;90051.44;5093982;28;20019;-70
2021/12/10 22:56:54;;;;;;;;;;;;;;;0.12;100.00;90042.28;5094196;28;19978;-70
2021/12/10 22:59:23;;;;;;;;;;;;;;;0.09;100.00;90021.91;5093703;28;19916;-70
2021/12/10 23:01:48;;;;;;;;;;;;;;;0.08;100.00;90022.19;5093841;28;19920;-70
2021/12/10 23:04:29;;;;;;;;;;;;;;;0.02;100.00;90013.59;5093862;28;19923;-70
2021/12/10 23:07:10;;;;;;;;;;;;;;;0.03;100.00;90012.53;5093864;28;19924;-70
2021/12/10 23:09:40;;;;;;;;;;;;;;;-0.07;100.00;90012.56;5093606;28;19920;-70
2021/12/10 23:12:09;;;;;;;;;;;;;;;-0.05;100.00;90010.47;5093535;28;19924;-69
2021/12/10 23:14:38;;;;;;;;;;;;;;;-0.15;100.00;90028.81;5093615;28;19939;-70
2021/12/10 23:17:10;;;;;;;;;;;;;;;-0.15;100.00;90015.75;5093518;28;19924;-70
2021/12/10 23:19:39;;;;;;;;;;;;;;;0.17;100.00;90013.53;5093611;28;19956;-70
2021/12/10 23:22:04;;;;;;;;;;;;;;;0.11;100.00;90030.25;5093401;28;20362;-70
2021/12/10 23:24:40;;;;;;;;;;;;;;;0.11;100.00;90035.50;5093300;28;19916;-70
2021/12/10 23:27:10;;;;;;;;;;;;;;;0.19;100.00;90026.31;5093349;28;19939;-70
2021/12/10 23:30:00;;;;;;;;;;;;;;;0.20;100.00;90022.66;5093297;28;19920;-70
2021/12/10 23:32:30;;;;;;;;;;;;;;;0.17;100.00;90018.75;5093256;28;19920;-70
2021/12/10 23:35:11;;;;;;;;;;;;;;;0.01;100.00;90014.63;5093249;28;20018;-70
2021/12/10 23:37:39;;;;;;;;;;;;;;;-0.09;100.00;90023.28;5093075;28;19916;-70
2021/12/10 23:40:24;;;;;;;;;;;;;;;-0.19;100.00;90036.38;5093021;28;19916;-70
2021/12/10 23:42:54;;;;;;;;;;;;;;;-0.17;100.00;90031.66;5092218;28;19916;-69
2021/12/10 23:45:19;;;;;;;;;;;;;;;-0.07;100.00;90036.09;5093007;28;19916;-69
2021/12/10 23:47:46;;;;;;;;;;;;;;;-0.02;100.00;90036.84;5092971;28;20401;-70
2021/12/10 23:50:15;;;;;;;;;;;;;;;-0.06;100.00;90032.41;5092575;28;19916;-70
2021/12/10 23:52:43;;;;;;;;;;;;;;;-0.09;100.00;90023.28;5092737;28;19917;-70
2021/12/10 23:55:12;;;;;;;;;;;;;;;-0.05;100.00;90032.16;5092674;28;19927;-69
2021/12/10 23:57:41;;;;;;;;;;;;;;;-0.06;100.00;90024.56;5092773;28;19923;-69
